createdAt,value
2023-04-16T00:00:12.787Z,92296.00
2023-04-16T00:02:41.352Z,92294.41
2023-04-16T00:05:10.973Z,92284.78
2023-04-16T00:07:39.489Z,92288.47
2023-04-16T00:10:10.694Z,92287.31
2023-04-16T00:12:39.220Z,92286.19
2023-04-16T00:15:10.408Z,92298.84
2023-04-16T00:17:39.080Z,92295.34
2023-04-16T00:20:10.099Z,92288.47
2023-04-16T00:22:38.609Z,92288.81
2023-04-16T00:25:07.878Z,92294.59
2023-04-16T00:27:36.609Z,92292.63
2023-04-16T00:30:06.030Z,92300.81
2023-04-16T00:32:36.146Z,92299.19
2023-04-16T00:35:04.888Z,92295.00
2023-04-16T00:37:33.445Z,92290.63
2023-04-16T00:40:03.161Z,92299.94
2023-04-16T00:42:31.622Z,92285.47
2023-04-16T00:45:00.031Z,92288.47
2023-04-16T00:47:29.126Z,92295.13
2023-04-16T00:49:59.001Z,92293.47
2023-04-16T00:52:27.873Z,92304.22
2023-04-16T00:54:56.518Z,92303.13
2023-04-16T00:57:24.972Z,92295.78
2023-04-16T00:59:53.512Z,92301.16
2023-04-16T01:02:22.186Z,92297.28
2023-04-16T01:04:50.706Z,92304.59
2023-04-16T01:07:20.552Z,92309.13
2023-04-16T01:09:49.025Z,92309.28
2023-04-16T01:12:17.441Z,92313.47
2023-04-16T01:14:46.074Z,92310.78
2023-04-16T01:17:14.513Z,92312.56
2023-04-16T01:19:43.699Z,92308.47
2023-04-16T01:22:13.530Z,92315.25
2023-04-16T01:24:41.926Z,92316.78
2023-04-16T01:27:10.391Z,92322.19
2023-04-16T01:29:38.982Z,92313.75
2023-04-16T01:32:07.818Z,92319.78
2023-04-16T01:34:36.304Z,92316.78
2023-04-16T01:37:05.524Z,92316.78
2023-04-16T01:39:35.663Z,92314.28
2023-04-16T01:42:04.114Z,92321.44
2023-04-16T01:44:32.574Z,92317.56
2023-04-16T01:47:01.568Z,92313.28
2023-04-16T01:49:31.014Z,92324.38
2023-04-16T01:51:59.415Z,92319.00
2023-04-16T01:54:27.878Z,92323.69
2023-04-16T01:56:57.680Z,92321.34
2023-04-16T01:59:26.333Z,92319.00
2023-04-16T02:01:55.300Z,92321.28
2023-04-16T02:04:24.094Z,92320.56
2023-04-16T02:06:52.489Z,92318.31
2023-04-16T02:09:21.101Z,92324.38
2023-04-16T02:11:49.533Z,92322.16
2023-04-16T02:14:19.327Z,92324.06
2023-04-16T02:16:47.938Z,92322.53
2023-04-16T02:19:16.455Z,92323.66
2023-04-16T02:21:44.876Z,92312.06
2023-04-16T02:24:13.379Z,92328.28
2023-04-16T02:26:42.476Z,92328.28
2023-04-16T02:29:11.066Z,92324.47
2023-04-16T02:31:41.167Z,92329.56
2023-04-16T02:34:09.745Z,92323.75
2023-04-16T02:36:38.232Z,92321.44
2023-04-16T02:39:06.886Z,92326.88
2023-04-16T02:41:35.618Z,92321.44
2023-04-16T02:44:04.282Z,92318.50
2023-04-16T02:46:32.701Z,92324.50
2023-04-16T02:49:03.032Z,92321.38
2023-04-16T02:51:33.263Z,92316.44
2023-04-16T02:54:03.414Z,92324.47
2023-04-16T02:56:31.811Z,92317.72
2023-04-16T02:59:00.257Z,92329.56
2023-04-16T03:01:29.300Z,92329.81
2023-04-16T03:03:57.811Z,92334.34
2023-04-16T03:06:27.641Z,92326.00
2023-04-16T03:08:56.101Z,92332.97
2023-04-16T03:11:25.012Z,92332.09
2023-04-16T03:13:53.911Z,92327.50
2023-04-16T03:16:22.420Z,92330.59
2023-04-16T03:18:51.027Z,92327.00
2023-04-16T03:21:19.577Z,92337.09
2023-04-16T03:23:49.384Z,92335.91
2023-04-16T03:26:17.847Z,92338.09
2023-04-16T03:28:46.513Z,92334.34
2023-04-16T03:31:15.010Z,92334.69
2023-04-16T03:33:43.877Z,92343.03
2023-04-16T03:36:12.368Z,92344.56
2023-04-16T03:38:41.003Z,92347.22
2023-04-16T03:41:10.955Z,92341.16
2023-04-16T03:43:39.412Z,92347.16
2023-04-16T03:46:07.948Z,92347.16
2023-04-16T03:48:36.526Z,92342.97
2023-04-16T03:51:05.720Z,92332.50
2023-04-16T03:53:34.185Z,92342.84
2023-04-16T03:56:02.651Z,92343.63
2023-04-16T03:58:32.463Z,92335.22
2023-04-16T04:01:00.876Z,92336.34
2023-04-16T04:03:29.551Z,92334.81
2023-04-16T04:05:58.311Z,92339.44
2023-04-16T04:08:27.024Z,92332.00
2023-04-16T04:10:55.448Z,92337.31
2023-04-16T04:13:23.896Z,92339.53
2023-04-16T04:15:53.735Z,92333.09
2023-04-16T04:18:22.202Z,92346.44
2023-04-16T04:20:50.671Z,92347.06
2023-04-16T04:23:19.166Z,92346.34
2023-04-16T04:25:48.237Z,92351.69
2023-04-16T04:28:16.879Z,92355.97
2023-04-16T04:30:45.337Z,92352.25
2023-04-16T04:33:15.181Z,92356.38
2023-04-16T04:35:43.645Z,92364.06
2023-04-16T04:38:13.653Z,92364.16
2023-04-16T04:40:44.038Z,92364.78
2023-04-16T04:43:12.714Z,92363.53
2023-04-16T04:45:41.527Z,92374.66
2023-04-16T04:48:09.975Z,92380.75
2023-04-16T04:50:40.943Z,92367.09
2023-04-16T04:53:11.098Z,92375.44
2023-04-16T04:55:39.852Z,92374.97
2023-04-16T04:58:09.429Z,92373.22
2023-04-16T05:00:37.910Z,92371.56
2023-04-16T05:03:09.843Z,92384.66
2023-04-16T05:05:40.225Z,92379.31
2023-04-16T05:08:08.806Z,92383.88
2023-04-16T05:10:37.279Z,92392.38
2023-04-16T05:13:06.042Z,92388.09
2023-04-16T05:15:34.483Z,92382.91
2023-04-16T05:18:02.996Z,92388.66
2023-04-16T05:20:31.708Z,92388.81
2023-04-16T05:23:01.489Z,92393.34
2023-04-16T05:25:30.065Z,92394.94
2023-04-16T05:27:58.474Z,92390.47
2023-04-16T05:30:26.924Z,92400.41
2023-04-16T05:32:55.401Z,92399.59
2023-04-16T05:35:23.883Z,92397.78
2023-04-16T05:37:52.297Z,92403.63
2023-04-16T05:40:22.271Z,92401.50
2023-04-16T05:42:50.680Z,92408.31
2023-04-16T05:45:19.380Z,92408.84
2023-04-16T05:47:47.830Z,92416.34
2023-04-16T05:50:16.651Z,92416.72
2023-04-16T05:52:45.303Z,92419.66
2023-04-16T05:55:13.843Z,92423.94
2023-04-16T05:57:43.895Z,92418.63
2023-04-16T06:00:13.133Z,92428.16
2023-04-16T06:02:42.010Z,92422.25
2023-04-16T06:05:11.005Z,92426.75
2023-04-16T06:07:39.691Z,92427.69
2023-04-16T06:10:09.171Z,92426.94
2023-04-16T06:12:37.818Z,92433.19
2023-04-16T06:15:09.722Z,92432.75
2023-04-16T06:17:38.405Z,92430.38
2023-04-16T06:20:08.663Z,92431.06
2023-04-16T06:22:37.384Z,92430.75
2023-04-16T06:25:06.947Z,92441.16
2023-04-16T06:27:35.487Z,92433.84
2023-04-16T06:30:04.006Z,92436.78
2023-04-16T06:32:33.872Z,92442.69
2023-04-16T06:35:02.596Z,92443.81
2023-04-16T06:37:31.241Z,92443.72
2023-04-16T06:39:59.801Z,92446.97
2023-04-16T06:42:28.336Z,92439.97
2023-04-16T06:44:56.822Z,92445.78
2023-04-16T06:47:25.368Z,92448.81
2023-04-16T06:49:55.271Z,92448.38
2023-04-16T06:52:23.968Z,92456.41
2023-04-16T06:54:52.429Z,92454.03
2023-04-16T06:57:20.859Z,92462.97
2023-04-16T06:59:49.558Z,92451.47
2023-04-16T07:02:18.090Z,92459.19
2023-04-16T07:04:46.694Z,92456.50
2023-04-16T07:07:16.495Z,92460.44
2023-04-16T07:09:45.207Z,92458.84
2023-04-16T07:12:13.701Z,92461.47
2023-04-16T07:14:42.550Z,92457.22
2023-04-16T07:17:11.025Z,92459.66
2023-04-16T07:19:39.535Z,92458.63
2023-04-16T07:22:08.121Z,92462.78
2023-04-16T07:24:38.207Z,92464.50
2023-04-16T07:27:07.008Z,92461.28
2023-04-16T07:29:35.634Z,92469.38
2023-04-16T07:32:04.154Z,92467.44
2023-04-16T07:34:32.626Z,92461.69
2023-04-16T07:37:01.088Z,92470.56
2023-04-16T07:39:29.506Z,92466.09
2023-04-16T07:41:59.312Z,92467.38
2023-04-16T07:44:28.047Z,92474.28
2023-04-16T07:46:56.519Z,92473.00
2023-04-16T07:49:25.090Z,92472.53
2023-04-16T07:51:53.597Z,92478.00
2023-04-16T07:54:22.042Z,92482.97
2023-04-16T07:56:50.578Z,92481.44
2023-04-16T07:59:23.502Z,92488.00
2023-04-16T08:01:55.040Z,92498.00
2023-04-16T08:04:26.273Z,92500.75
2023-04-16T08:06:55.729Z,92501.50
2023-04-16T08:09:27.401Z,92500.38
2023-04-16T08:11:56.099Z,92502.19
2023-04-16T08:14:26.141Z,92505.06
2023-04-16T08:16:54.635Z,92511.25
2023-04-16T08:19:23.095Z,92515.16
2023-04-16T08:21:51.579Z,92514.44
2023-04-16T08:24:20.013Z,92513.59
2023-04-16T08:26:48.681Z,92520.72
2023-04-16T08:29:17.183Z,92527.09
2023-04-16T08:31:50.141Z,92529.03
2023-04-16T08:34:19.085Z,92534.56
2023-04-16T08:36:47.560Z,92533.00
2023-04-16T08:39:16.232Z,92531.75
2023-04-16T08:41:47.992Z,92535.50
2023-04-16T08:44:22.673Z,92536.25
2023-04-16T08:46:57.393Z,92536.31
2023-04-16T08:49:27.061Z,92550.38
2023-04-16T08:51:57.328Z,92531.34
2023-04-16T08:54:38.267Z,92539.53
2023-04-16T08:57:08.803Z,92539.56
2023-04-16T08:59:38.279Z,92546.13
2023-04-16T09:02:08.285Z,92539.25
2023-04-16T09:04:40.158Z,92542.22
2023-04-16T09:07:10.862Z,92543.53
2023-04-16T09:09:40.526Z,92547.00
2023-04-16T09:12:10.084Z,92552.03
2023-04-16T09:14:42.095Z,92554.53
2023-04-16T09:17:14.160Z,92553.81
2023-04-16T09:19:42.878Z,92564.25
2023-04-16T09:22:11.348Z,92561.41
2023-04-16T09:24:40.023Z,92561.88
2023-04-16T09:27:09.818Z,92552.75
2023-04-16T09:29:40.513Z,92561.41
2023-04-16T09:32:12.424Z,92567.53
2023-04-16T09:34:57.746Z,92568.22
2023-04-16T09:37:27.533Z,92564.38
2023-04-16T09:39:59.401Z,92573.91
2023-04-16T09:42:29.717Z,92576.47
2023-04-16T09:45:00.762Z,92572.50
2023-04-16T09:47:43.792Z,92576.50
2023-04-16T09:50:18.252Z,92576.06
2023-04-16T09:52:51.665Z,92566.56
2023-04-16T09:55:24.932Z,92575.22
2023-04-16T09:58:01.103Z,92579.81
2023-04-16T10:00:31.895Z,92578.19
2023-04-16T10:03:08.678Z,92578.81
2023-04-16T10:05:37.515Z,92575.38
2023-04-16T10:08:14.358Z,92580.50
2023-04-16T10:10:43.327Z,92586.47
2023-04-16T10:13:12.837Z,92582.28
2023-04-16T10:15:42.067Z,92590.13
2023-04-16T10:18:12.318Z,92585.53
2023-04-16T10:20:40.869Z,92593.06
2023-04-16T10:23:09.609Z,92591.44
2023-04-16T10:25:39.462Z,92595.84
2023-04-16T10:28:09.905Z,92596.94
2023-04-16T10:30:39.010Z,92590.97
2023-04-16T10:33:09.193Z,92589.88
2023-04-16T10:35:42.295Z,92596.13
2023-04-16T10:38:24.313Z,92594.22
2023-04-16T10:41:00.024Z,92590.66
2023-04-16T10:43:29.983Z,92603.00
2023-04-16T10:45:58.908Z,92602.44
2023-04-16T10:48:31.011Z,92601.44
2023-04-16T10:51:08.671Z,92601.31
2023-04-16T10:53:38.920Z,92591.16
2023-04-16T10:56:14.130Z,92597.97
2023-04-16T10:58:43.116Z,92596.59
2023-04-16T11:01:16.945Z,92591.53
2023-04-16T11:03:48.852Z,92592.81
2023-04-16T11:06:26.196Z,92589.97
2023-04-16T11:08:55.465Z,92585.59
2023-04-16T11:11:24.800Z,92586.97
2023-04-16T11:13:57.991Z,92594.06
2023-04-16T11:16:28.184Z,92593.03
2023-04-16T11:18:58.285Z,92592.44
2023-04-16T11:21:28.712Z,92589.38
2023-04-16T11:23:59.213Z,92599.94
2023-04-16T11:26:30.738Z,92596.47
2023-04-16T11:29:00.300Z,92596.19
2023-04-16T11:31:29.007Z,92591.09
2023-04-16T11:33:59.482Z,92593.13
2023-04-16T11:36:32.392Z,92600.84
2023-04-16T11:39:04.683Z,92603.81
2023-04-16T11:41:33.100Z,92606.88
2023-04-16T11:44:01.691Z,92604.50
2023-04-16T11:46:45.003Z,92603.03
2023-04-16T11:49:13.881Z,92606.53
2023-04-16T11:51:44.993Z,92606.28
2023-04-16T11:54:21.528Z,92612.94
2023-04-16T11:56:52.826Z,92609.53
2023-04-16T11:59:24.145Z,92619.66
2023-04-16T12:01:55.727Z,92621.41
2023-04-16T12:04:27.063Z,92623.91
2023-04-16T12:07:14.683Z,92624.81
2023-04-16T12:09:44.887Z,92627.09
2023-04-16T12:12:27.863Z,92631.81
2023-04-16T12:14:57.094Z,92634.84
2023-04-16T12:17:26.337Z,92637.25
2023-04-16T12:19:59.037Z,92638.72
2023-04-16T12:22:36.603Z,92642.38
2023-04-16T12:25:07.728Z,92643.41
2023-04-16T12:27:47.959Z,92638.22
2023-04-16T12:30:18.835Z,92644.75
2023-04-16T12:32:50.733Z,92646.94
2023-04-16T12:35:32.491Z,92648.56
2023-04-16T12:38:03.629Z,92649.63
2023-04-16T12:40:32.463Z,92651.09
2023-04-16T12:43:00.994Z,92646.03
2023-04-16T12:45:29.675Z,92654.66
2023-04-16T12:47:58.170Z,92655.72
2023-04-16T12:50:28.489Z,92657.81
2023-04-16T12:52:57.804Z,92645.88
2023-04-16T12:55:27.752Z,92662.44
2023-04-16T12:57:56.464Z,92658.88
2023-04-16T13:00:25.079Z,92660.50
2023-04-16T13:02:53.629Z,92662.78
2023-04-16T13:05:22.374Z,92654.53
2023-04-16T13:07:50.966Z,92666.63
2023-04-16T13:10:19.514Z,92659.34
2023-04-16T13:12:49.339Z,92651.19
2023-04-16T13:15:17.958Z,92655.78
2023-04-16T13:20:36.030Z,92653.50
2023-04-16T13:23:05.535Z,92651.13
2023-04-16T13:25:34.232Z,92652.44
2023-04-16T13:28:04.026Z,92648.75
2023-04-16T13:30:33.493Z,92648.44
2023-04-16T13:33:02.526Z,92645.00
2023-04-16T13:35:32.185Z,92642.69
2023-04-16T13:38:00.915Z,92642.56
2023-04-16T13:40:29.568Z,92645.66
2023-04-16T13:42:58.284Z,92649.03
2023-04-16T13:45:29.201Z,92645.47
2023-04-16T13:47:57.746Z,92654.63
2023-04-16T13:50:26.507Z,92649.56
2023-04-16T13:52:54.977Z,92653.03
2023-04-16T13:55:23.813Z,92649.31
2023-04-16T13:57:53.383Z,92654.81
2023-04-16T14:00:24.858Z,92656.72
2023-04-16T14:02:55.001Z,92648.56
2023-04-16T14:05:26.941Z,92648.75
2023-04-16T14:07:55.743Z,92657.84
2023-04-16T14:10:24.639Z,92646.09
2023-04-16T14:12:53.451Z,92652.84
2023-04-16T14:15:22.089Z,92657.13
2023-04-16T14:17:50.910Z,92648.25
2023-04-16T14:20:20.978Z,92641.25
2023-04-16T14:22:49.806Z,92653.94
2023-04-16T14:25:18.557Z,92650.63
2023-04-16T14:27:47.018Z,92648.97
2023-04-16T14:30:16.673Z,92651.13
2023-04-16T14:32:45.238Z,92654.41
2023-04-16T14:35:13.791Z,92651.28
2023-04-16T14:37:44.721Z,92650.88
2023-04-16T14:40:14.118Z,92650.88
2023-04-16T14:42:42.830Z,92648.25
2023-04-16T14:45:11.682Z,92649.38
2023-04-16T14:47:46.102Z,92647.94
2023-04-16T14:50:15.794Z,92649.41
2023-04-16T14:52:45.775Z,92644.38
2023-04-16T14:55:14.255Z,92651.41
2023-04-16T14:57:42.823Z,92650.66
2023-04-16T15:00:13.698Z,92651.84
2023-04-16T15:02:42.437Z,92644.81
2023-04-16T15:05:11.560Z,92652.69
2023-04-16T15:07:39.987Z,92652.69
2023-04-16T15:10:12.696Z,92650.91
2023-04-16T15:12:41.542Z,92649.00
2023-04-16T15:15:11.476Z,92655.53
2023-04-16T15:17:40.261Z,92662.78
2023-04-16T15:20:11.053Z,92655.78
2023-04-16T15:22:39.838Z,92655.91
2023-04-16T15:25:10.808Z,92662.75
2023-04-16T15:27:39.479Z,92659.59
2023-04-16T15:30:09.753Z,92666.97
2023-04-16T15:32:38.501Z,92663.53
2023-04-16T15:35:09.122Z,92663.94
2023-04-16T15:37:40.078Z,92669.72
2023-04-16T15:40:11.043Z,92672.88
2023-04-16T15:42:40.643Z,92677.00
2023-04-16T15:45:10.210Z,92669.38
2023-04-16T15:47:40.896Z,92680.03
2023-04-16T15:50:10.784Z,92667.84
2023-04-16T15:52:39.499Z,92669.88
2023-04-16T15:55:10.073Z,92671.97
2023-04-16T15:57:38.521Z,92680.50
2023-04-16T16:00:14.700Z,92671.41
2023-04-16T16:02:44.829Z,92667.13
2023-04-16T16:05:15.369Z,92674.94
2023-04-16T16:07:44.772Z,92674.41
2023-04-16T16:10:15.654Z,92671.16
2023-04-16T16:12:44.098Z,92672.06
2023-04-16T16:15:12.759Z,92679.97
2023-04-16T16:17:41.378Z,92679.78
2023-04-16T16:20:11.051Z,92674.88
2023-04-16T16:22:40.663Z,92680.44
2023-04-16T16:25:10.277Z,92681.84
2023-04-16T16:27:40.755Z,92683.59
2023-04-16T16:30:11.276Z,92683.84
2023-04-16T16:32:41.089Z,92685.50
2023-04-16T16:35:10.997Z,92684.88
2023-04-16T16:37:39.832Z,92679.38
2023-04-16T16:40:09.779Z,92685.50
2023-04-16T16:42:39.672Z,92684.09
2023-04-16T16:45:10.141Z,92682.94
2023-04-16T16:47:38.597Z,92681.25
2023-04-16T16:50:11.650Z,92687.31
2023-04-16T16:52:40.160Z,92682.88
2023-04-16T16:55:11.356Z,92686.59
2023-04-16T16:57:41.818Z,92682.38
2023-04-16T17:00:15.960Z,92684.25
2023-04-16T17:02:44.724Z,92696.56
2023-04-16T17:05:14.137Z,92690.34
2023-04-16T17:07:42.556Z,92691.31
2023-04-16T17:10:13.703Z,92690.00
2023-04-16T17:12:43.606Z,92697.22
2023-04-16T17:15:13.547Z,92699.72
2023-04-16T17:17:42.009Z,92700.25
2023-04-16T17:20:12.554Z,92691.97
2023-04-16T17:22:41.359Z,92698.47
2023-04-16T17:25:10.595Z,92698.19
2023-04-16T17:27:39.702Z,92700.09
2023-04-16T17:30:11.308Z,92703.56
2023-04-16T17:32:39.838Z,92706.91
2023-04-16T17:35:10.044Z,92705.41
2023-04-16T17:37:38.861Z,92708.50
2023-04-16T17:40:10.121Z,92703.03
2023-04-16T17:42:38.970Z,92703.25
2023-04-16T17:45:10.229Z,92709.22
2023-04-16T17:47:39.072Z,92704.50
2023-04-16T17:50:09.915Z,92701.84
2023-04-16T17:52:38.684Z,92711.50
2023-04-16T17:55:08.491Z,92709.22
2023-04-16T17:57:37.362Z,92715.44
2023-04-16T18:00:10.411Z,92716.88
2023-04-16T18:02:41.020Z,92715.59
2023-04-16T18:05:10.427Z,92713.56
2023-04-16T18:07:39.108Z,92719.56
2023-04-16T18:10:10.183Z,92712.31
2023-04-16T18:12:38.690Z,92718.47
2023-04-16T18:15:08.629Z,92724.59
2023-04-16T18:17:37.160Z,92726.09
2023-04-16T18:20:11.650Z,92726.06
2023-04-16T18:22:40.098Z,92725.50
2023-04-16T18:25:09.339Z,92727.28
2023-04-16T18:27:37.921Z,92727.03
2023-04-16T18:30:15.572Z,92727.09
2023-04-16T18:33:06.893Z,92735.34
2023-04-16T18:35:37.302Z,92739.16
2023-04-16T18:38:05.739Z,92734.72
2023-04-16T18:40:36.244Z,92732.66
2023-04-16T18:43:05.014Z,92729.41
2023-04-16T18:48:22.468Z,92735.16
2023-04-16T18:50:52.312Z,92740.47
2023-04-16T18:53:21.320Z,92742.84
2023-04-16T18:55:54.360Z,92745.88
2023-04-16T18:58:23.247Z,92744.38
2023-04-16T19:00:54.902Z,92740.09
2023-04-16T19:03:23.326Z,92744.47
2023-04-16T19:05:53.870Z,92743.88
2023-04-16T19:08:22.367Z,92748.34
2023-04-16T19:10:51.264Z,92751.38
2023-04-16T19:13:19.899Z,92753.16
2023-04-16T19:15:48.364Z,92751.25
2023-04-16T19:18:16.842Z,92753.28
2023-04-16T19:20:45.322Z,92753.03
2023-04-16T19:23:15.428Z,92747.56
2023-04-16T19:25:43.832Z,92750.00
2023-04-16T19:28:15.541Z,92751.56
2023-04-16T19:30:49.851Z,92756.03
2023-04-16T19:33:18.294Z,92761.88
2023-04-16T19:35:47.578Z,92754.44
2023-04-16T19:38:17.430Z,92761.25
2023-04-16T19:40:46.838Z,92756.91
2023-04-16T19:43:16.192Z,92758.91
2023-04-16T19:45:45.288Z,92763.88
2023-04-16T19:48:14.582Z,92764.81
2023-04-16T19:50:43.602Z,92761.28
2023-04-16T19:53:12.561Z,92761.50
2023-04-16T19:55:43.280Z,92762.88
2023-04-16T19:58:11.826Z,92759.75
2023-04-16T20:00:42.111Z,92760.06
2023-04-16T20:03:11.325Z,92766.38
2023-04-16T20:05:39.849Z,92770.38
2023-04-16T20:08:08.443Z,92763.91
2023-04-16T20:10:36.890Z,92761.22
2023-04-16T20:13:10.030Z,92760.03
2023-04-16T20:15:38.646Z,92760.63
2023-04-16T20:18:08.583Z,92757.31
2023-04-16T20:20:38.007Z,92765.66
2023-04-16T20:23:06.705Z,92752.09
2023-04-16T20:25:35.165Z,92759.06
2023-04-16T20:28:03.603Z,92755.22
2023-04-16T20:30:38.827Z,92760.50
2023-04-16T20:33:07.867Z,92753.22
2023-04-16T20:35:36.498Z,92762.56
2023-04-16T20:38:05.194Z,92759.03
2023-04-16T20:40:34.123Z,92756.78
2023-04-16T20:43:02.885Z,92757.63
2023-04-16T20:45:38.146Z,92754.63
2023-04-16T20:48:07.072Z,92760.41
2023-04-16T20:50:35.757Z,92751.91
2023-04-16T20:53:04.170Z,92752.03
2023-04-16T20:55:32.822Z,92750.50
2023-04-16T20:58:01.224Z,92749.47
2023-04-16T21:00:29.884Z,92750.00
2023-04-16T21:03:00.029Z,92745.19
2023-04-16T21:05:30.102Z,92747.50
2023-04-16T21:07:58.522Z,92738.28
2023-04-16T21:10:26.949Z,92736.88
2023-04-16T21:12:55.877Z,92731.06
2023-04-16T21:15:24.422Z,92730.09
2023-04-16T21:17:52.901Z,92737.00
2023-04-16T21:20:22.832Z,92735.38
2023-04-16T21:22:55.150Z,92731.28
2023-04-16T21:25:24.044Z,92733.91
2023-04-16T21:27:52.646Z,92734.19
2023-04-16T21:30:21.572Z,92735.16
2023-04-16T21:32:50.721Z,92733.97
2023-04-16T21:35:19.390Z,92732.47
2023-04-16T21:37:49.237Z,92733.47
2023-04-16T21:40:18.205Z,92738.69
2023-04-16T21:42:46.673Z,92727.47
2023-04-16T21:45:15.640Z,92732.91
2023-04-16T21:47:44.183Z,92727.28
2023-04-16T21:50:14.050Z,92732.84
2023-04-16T21:52:46.156Z,92727.47
2023-04-16T21:55:16.254Z,92730.09
2023-04-16T21:57:44.930Z,92723.59
2023-04-16T22:00:14.663Z,92721.19
2023-04-16T22:02:43.448Z,92722.03
2023-04-16T22:05:12.666Z,92718.88
2023-04-16T22:07:41.593Z,92725.13
2023-04-16T22:10:12.381Z,92715.97
2023-04-16T22:12:44.867Z,92713.94
2023-04-16T22:15:15.424Z,92709.75
2023-04-16T22:17:44.079Z,92714.00
2023-04-16T22:20:13.418Z,92711.72
2023-04-16T22:22:42.936Z,92722.41
2023-04-16T22:25:12.306Z,92706.72
2023-04-16T22:27:41.089Z,92706.81
2023-04-16T22:30:12.538Z,92704.09
2023-04-16T22:32:40.997Z,92704.47
2023-04-16T22:35:10.807Z,92705.59
2023-04-16T22:37:39.250Z,92710.59
2023-04-16T22:40:10.871Z,92709.75
2023-04-16T22:42:39.345Z,92707.31
2023-04-16T22:45:10.243Z,92704.41
2023-04-16T22:47:38.902Z,92696.00
2023-04-16T22:50:10.833Z,92703.44
2023-04-16T22:52:39.547Z,92700.47
2023-04-16T22:55:09.144Z,92691.34
2023-04-16T22:57:37.834Z,92698.38
2023-04-16T23:00:14.792Z,92696.72
2023-04-16T23:02:45.774Z,92692.47
2023-04-16T23:05:14.302Z,92699.81
2023-04-16T23:07:42.793Z,92703.56
2023-04-16T23:10:11.893Z,92702.44
2023-04-16T23:12:40.622Z,92694.56
2023-04-16T23:15:09.779Z,92689.78
2023-04-16T23:17:38.370Z,92692.94
2023-04-16T23:20:10.156Z,92698.31
2023-04-16T23:22:38.671Z,92695.50
2023-04-16T23:25:09.016Z,92696.94
2023-04-16T23:27:37.517Z,92695.56
2023-04-16T23:30:07.719Z,92696.72
2023-04-16T23:32:36.315Z,92691.41
2023-04-16T23:35:04.967Z,92683.97
2023-04-16T23:37:35.429Z,92682.41
2023-04-16T23:40:04.697Z,92683.59
2023-04-16T23:42:33.140Z,92688.84
2023-04-16T23:45:01.573Z,92683.53
2023-04-16T23:47:30.031Z,92690.44
2023-04-16T23:49:58.477Z,92683.31
2023-04-16T23:52:27.199Z,92681.63
2023-04-16T23:54:57.205Z,92681.63
2023-04-16T23:57:25.669Z,92683.53
2023-04-16T23:59:54.350Z,92680.38
